METAR Data
IDs: Format: Raw Decoded Include TAF

Data at: 2233 UTC 24 Mar 2019

KGYI 242150Z 20010KT 10SM SCT045 27/16 A2995
KGYI 242050Z 18011KT 10SM SCT041 BKN050 27/17 A2997
KGYI 241950Z 21012KT 10SM SCT038 BKN046 27/17 A2999
KGYI 241850Z 19013G20KT 10SM SCT031 SCT036 24/17 A3000
KGYI 241750Z 21015G21KT 10SM OVC031 23/17 A3003
KGYI 241650Z 20014G20KT 10SM BKN019 OVC025 22/17 A3004
KGYI 241550Z 19016G22KT 10SM SCT013 20/16 A3005
KGYI 241450Z 20016G20KT 10SM SCT011 19/16 A3005
KGYI 241350Z 19013KT 10SM SCT013 16/15 A3003
KGYI 241250Z 18013KT 10SM SCT009 16/15 A3001
KGYI 241150Z 18014KT 10SM SCT080 16/15 A3000
KGYI 241115Z AUTO 19013G18KT 10SM CLR 16/15 A3000 RMK AO2 T01610147 TSNO
KGYI 241055Z AUTO 19013KT 10SM CLR 16/15 A3000 RMK AO2 T01610146 TSNO
KGYI 241035Z AUTO 19012KT 10SM CLR 16/15 A3000 RMK AO2 T01600145 TSNO
KGYI 241015Z AUTO 18013KT 10SM CLR 16/15 A2999 RMK AO2 T01600145 TSNO
KGYI 240955Z AUTO 18013G19KT 10SM CLR 16/15 A2999 RMK AO2 T01610145 TSNO
KGYI 240935Z AUTO 18014G19KT 10SM CLR 16/14 A2999 RMK AO2 T01620144 TSNO
KGYI 240915Z AUTO 19012G16KT 10SM CLR 16/14 A3000 RMK AO2 T01620143 TSNO
KGYI 240855Z AUTO 18010KT 10SM CLR 16/14 A3000 RMK AO2 T01610141 TSNO
KGYI 240835Z AUTO 18011KT 10SM CLR 17/14 A3000 RMK AO2 T01650142 TSNO
KGYI 240815Z AUTO 18011KT 10SM CLR 17/14 A3001 RMK AO2 T01670142 TSNO
KGYI 240755Z AUTO 18012G18KT 10SM CLR 17/14 A3001 RMK AO2 T01700142 TSNO
KGYI 240735Z AUTO 18014G18KT 10SM CLR 18/14 A3001 RMK AO2 T01750142 TSNO
KGYI 240715Z AUTO 18016KT 10SM SCT024 SCT030 SCT039 18/14 A3001 RMK AO2 T01760142 TSNO
KGYI 240655Z AUTO 18015G19KT 10SM BKN025 BKN033 OVC065 18/14 A3002 RMK AO2 T01810142 TSNO
KGYI 240635Z AUTO 18013G18KT 10SM SCT025 BKN029 OVC060 18/14 A3002 RMK AO2 T01810141 TSNO
KGYI 240615Z AUTO 18012KT 10SM BKN031 OVC042 18/14 A3002 RMK AO2 T01840141 TSNO
KGYI 240555Z AUTO 18013KT 10SM SCT029 BKN034 OVC055 19/14 A3002 RMK AO2 T01850141 10186 20175 402000131 TSNO
KGYI 240535Z AUTO 19015KT 10SM BKN033 BKN046 OVC065 19/14 A3003 RMK AO2 T01850141 TSNO
KGYI 240515Z AUTO 18013KT 10SM OVC037 18/14 A3002 RMK AO2 T01830142 TSNO
KGYI 240455Z AUTO 18013KT 10SM BKN037 BKN060 BKN100 18/14 A3002 RMK AO2 T01840143 TSNO
KGYI 240435Z AUTO 18011KT 10SM SCT037 SCT060 SCT070 18/15 A3002 RMK AO2 T01800145 TSNO
KGYI 240415Z AUTO 18010KT 10SM SCT037 SCT080 18/15 A3002 RMK AO2 T01750145 TSNO
KGYI 240355Z AUTO 18010KT 10SM SCT037 SCT080 18/15 A3001 RMK AO2 T01760145 TSNO
KGYI 240335Z AUTO 18010KT 10SM SCT037 18/15 A3001 RMK AO2 T01760145 TSNO
KGYI 240315Z AUTO 17012KT 10SM SCT036 18/15 A3000 RMK AO2 T01760145 TSNO
KGYI 240255Z AUTO 17011KT 10SM SCT085 SCT110 18/15 A3000 RMK AO2 T01770146 TSNO
KGYI 240235Z AUTO 17010KT 10SM BKN085 18/15 A3000 RMK AO2 T01800148 TSNO
KGYI 240215Z AUTO 17010KT 10SM SCT085 18/15 A3000 RMK AO2 T01800148 TSNO
KGYI 240155Z AUTO 15009KT 10SM CLR 18/15 A3000 RMK AO2 T01800150 TSNO
KGYI 240135Z AUTO 16008KT 10SM CLR 18/15 A2999 RMK AO2 T01800150 TSNO
KGYI 240115Z AUTO 15011KT 10SM CLR 18/15 A2997 RMK AO2 T01800151 TSNO
KGYI 240055Z AUTO 16012KT 10SM CLR 18/15 A2997 RMK AO2 T01780153 TSNO
KGYI 240035Z AUTO 16013KT 10SM CLR 18/15 A2997 RMK AO2 T01790154 TSNO
KGYI 240015Z AUTO 16015G19KT 10SM SCT027 SCT038 SCT044 18/16 A2997 RMK AO2 T01800155 TSNO
KGYI 232250Z 16014KT 10SM SCT049 BKN060 OVC080 19/15 A2998
KGYI 232150Z 17015G19KT 10SM SCT036 OVC050 19/15 A2998
KGYI 232050Z 17015G18KT 10SM OVC024 19/15 A2999
KGYI 231950Z 17016KT 10SM OVC020 19/15 A3001
KGYI 231850Z 17017KT 10SM SCT018 OVC050 18/14 A3002
KGYI 231750Z 17014KT 10SM SCT024 OVC050 17/15 A3005
KGYI 231650Z 16015KT 7SM -RA OVC041 16/14 A3007
KGYI 231550Z COR 16013KT 10SM SCT040 BKN050 OVC085 15/12 A3007
KGYI 231450Z 16004KT 4SM RA SCT027 OVC038 13/10 A3008
KGYI 231350Z 13012KT 10SM BKN048 15/08 A3005
KGYI 231250Z 14009KT 10SM OVC075 15/08 A3005
KGYI 231150Z 12006KT 10SM OVC075 14/07 A3004
KGYI 231115Z AUTO 18005KT 10SM BKN075 15/07 A3004 RMK AO2 T01490070 TSNO
KGYI 231055Z AUTO 15007KT 10SM BKN075 15/07 A3003 RMK AO2 T01500068 TSNO
KGYI 231035Z AUTO 15007KT 10SM BKN075 BKN120 15/07 A3003 RMK AO2 T01500065 TSNO